Time;durP1;ratioP1;P1;durP2;ratioP2;P2;SDS_P1;SDS_P2;PMS_P1;PMS_P2;Temp;Humidity;BMP_temperature;BMP_pressure;BME280_temperature;BME280_humidity;BME280_pressure;Samples;Min_cycle;Max_cycle;Signal;HPM_P1;HPM_P2
2022/10/27 04:02:57;;;;;;;0.67;0.40;;;13.90;99.90;;;;;;4917351;29;20508;-77
2022/10/27 04:05:25;;;;;;;0.60;0.10;;;13.70;99.90;;;;;;4908333;29;20812;-77
2022/10/27 04:07:53;;;;;;;0.60;0.10;;;13.60;99.90;;;;;;4917069;29;20449;-77
2022/10/27 04:10:21;;;;;;;0.60;0.10;;;13.60;99.90;;;;;;4918395;29;20867;-77
2022/10/27 04:12:49;;;;;;;0.60;0.10;;;13.60;99.90;;;;;;4920400;29;20891;-77
2022/10/27 04:15:18;;;;;;;0.60;0.10;;;13.60;99.90;;;;;;4972045;23;21024;-75
2022/10/27 04:17:46;;;;;;;0.60;0.10;;;13.60;99.90;;;;;;4970309;28;20461;-76
2022/10/27 04:20:15;;;;;;;0.60;0.10;;;13.60;99.90;;;;;;4968507;28;20454;-75
2022/10/27 04:22:43;;;;;;;0.60;0.10;;;13.60;99.90;;;;;;4972846;28;20442;-76
2022/10/27 04:25:11;;;;;;;0.60;0.10;;;13.60;99.90;;;;;;4979478;28;20611;-76
2022/10/27 04:27:39;;;;;;;0.60;0.10;;;13.70;99.90;;;;;;4978178;28;20501;-75
2022/10/27 04:30:07;;;;;;;0.60;0.10;;;13.60;99.90;;;;;;4978432;28;20457;-76
2022/10/27 04:32:35;;;;;;;0.60;0.10;;;13.70;99.90;;;;;;4955878;28;20474;-76
2022/10/27 04:35:04;;;;;;;0.90;0.70;;;13.70;99.90;;;;;;4976571;28;20466;-76
2022/10/27 04:37:33;;;;;;;0.60;0.10;;;13.60;99.90;;;;;;4959123;29;20451;-76
2022/10/27 04:40:01;;;;;;;0.60;0.10;;;13.70;99.90;;;;;;4959732;29;20471;-76
2022/10/27 04:42:29;;;;;;;0.60;0.10;;;13.70;99.90;;;;;;4958402;29;20486;-77
2022/10/27 04:44:57;;;;;;;0.60;0.10;;;13.70;99.90;;;;;;4958201;29;20486;-75
2022/10/27 04:47:26;;;;;;;0.60;0.10;;;13.60;99.90;;;;;;4958215;29;20455;-75
2022/10/27 04:49:53;;;;;;;0.53;0.10;;;13.60;99.90;;;;;;4960281;29;20443;-76
2022/10/27 04:52:21;;;;;;;0.50;0.10;;;13.60;99.90;;;;;;4960848;29;20454;-76
2022/10/27 04:54:50;;;;;;;0.60;0.10;;;13.60;99.90;;;;;;4961263;28;20467;-75
2022/10/27 04:57:18;;;;;;;0.60;0.10;;;13.60;99.90;;;;;;4955880;28;20467;-76
2022/10/27 04:59:47;;;;;;;0.60;0.10;;;13.60;99.90;;;;;;4970681;28;20879;-74
2022/10/27 05:02:15;;;;;;;0.57;0.10;;;13.50;99.90;;;;;;4961461;28;20526;-76
2022/10/27 05:04:43;;;;;;;0.60;0.10;;;13.50;99.90;;;;;;4957255;28;20481;-75
2022/10/27 05:07:10;;;;;;;0.60;0.10;;;13.50;99.90;;;;;;4957151;29;20467;-75
2022/10/27 05:09:38;;;;;;;0.60;0.10;;;13.50;99.90;;;;;;4957246;29;20451;-76
2022/10/27 05:12:08;;;;;;;0.60;0.10;;;13.50;99.90;;;;;;4956695;29;20491;-76
2022/10/27 05:14:36;;;;;;;0.60;0.10;;;13.50;99.90;;;;;;4956627;28;20517;-76
2022/10/27 05:17:03;;;;;;;0.60;0.10;;;13.50;99.90;;;;;;4957703;29;20477;-77
2022/10/27 05:19:31;;;;;;;0.60;0.10;;;13.40;99.90;;;;;;4956611;29;20474;-75
2022/10/27 05:21:59;;;;;;;0.60;0.10;;;13.40;99.90;;;;;;4953568;28;20487;-75
2022/10/27 05:24:27;;;;;;;0.60;0.10;;;13.50;99.90;;;;;;4945941;29;20523;-77
2022/10/27 05:26:55;;;;;;;0.60;0.10;;;13.50;99.90;;;;;;4938444;29;20511;-77
2022/10/27 05:29:24;;;;;;;0.60;0.10;;;13.40;99.90;;;;;;4937884;29;20448;-76
2022/10/27 05:31:54;;;;;;;0.60;0.10;;;13.40;99.90;;;;;;4944040;29;20459;-76
2022/10/27 05:34:21;;;;;;;0.60;0.10;;;13.40;99.90;;;;;;4959636;28;20482;-74
2022/10/27 05:36:50;;;;;;;0.57;0.10;;;13.40;99.90;;;;;;4950739;28;20530;-75
2022/10/27 05:39:17;;;;;;;0.60;0.10;;;13.30;99.90;;;;;;4954508;28;21041;-76
2022/10/27 05:41:45;;;;;;;0.60;0.10;;;13.30;99.90;;;;;;4969948;28;20614;-75
2022/10/27 05:44:13;;;;;;;0.60;0.10;;;13.30;99.90;;;;;;4960144;28;20534;-76
2022/10/27 05:46:42;;;;;;;0.60;0.10;;;13.30;99.90;;;;;;4953618;29;20510;-76
2022/10/27 05:49:10;;;;;;;0.60;0.10;;;13.30;99.90;;;;;;4954913;29;20987;-75
2022/10/27 05:51:38;;;;;;;0.60;0.10;;;13.30;99.90;;;;;;4956065;29;20447;-75
2022/10/27 05:54:06;;;;;;;0.60;0.10;;;13.30;99.90;;;;;;4956445;28;20811;-74
2022/10/27 05:56:34;;;;;;;0.53;0.10;;;13.20;99.90;;;;;;4944042;29;20510;-74
2022/10/27 05:59:02;;;;;;;0.50;0.10;;;13.30;99.90;;;;;;4937354;29;21167;-74
2022/10/27 06:01:35;;;;;;;0.60;0.10;;;13.40;99.90;;;;;;4949631;29;20483;-75
2022/10/27 06:04:04;;;;;;;0.60;0.10;;;13.30;99.90;;;;;;4956303;28;20491;-75
2022/10/27 06:06:32;;;;;;;0.60;0.10;;;13.30;99.90;;;;;;4956213;29;20475;-73
2022/10/27 06:09:00;;;;;;;0.60;0.40;;;13.20;99.90;;;;;;4956557;29;20459;-76
2022/10/27 06:11:28;;;;;;;0.60;0.10;;;13.20;99.90;;;;;;4944479;29;20451;-76
2022/10/27 06:13:56;;;;;;;0.60;0.10;;;13.00;95.50;;;;;;4936917;29;20476;-75
2022/10/27 06:16:25;;;;;;;0.60;0.10;;;13.00;97.80;;;;;;4950222;29;20880;-76
2022/10/27 06:18:53;;;;;;;0.60;0.10;;;12.90;97.60;;;;;;4940178;29;20471;-75
2022/10/27 06:21:23;;;;;;;0.60;0.10;;;12.80;97.60;;;;;;4956639;29;20510;-76
2022/10/27 06:23:51;;;;;;;0.60;0.10;;;12.70;97.50;;;;;;4956150;28;20466;-76
2022/10/27 06:26:18;;;;;;;0.50;0.10;;;12.70;95.40;;;;;;4956073;29;20447;-75
2022/10/27 06:28:46;;;;;;;0.60;0.10;;;12.60;97.60;;;;;;4956630;29;20814;-77
2022/10/27 06:31:14;;;;;;;0.60;0.10;;;12.60;99.90;;;;;;4956983;29;20451;-75
2022/10/27 06:33:42;;;;;;;0.60;0.10;;;12.60;95.30;;;;;;4955787;28;20491;-76
2022/10/27 06:36:10;;;;;;;0.60;0.10;;;12.50;97.60;;;;;;4969384;29;20559;-76
2022/10/27 06:38:39;;;;;;;0.60;0.10;;;12.50;97.40;;;;;;4969481;29;20447;-77
2022/10/27 06:41:11;;;;;;;0.60;0.10;;;12.50;97.40;;;;;;4953438;29;20879;-74
2022/10/27 06:43:44;;;;;;;0.60;0.10;;;12.50;95.30;;;;;;4944941;29;20519;-76
2022/10/27 06:46:12;;;;;;;0.60;0.10;;;13.80;98.20;;;;;;4947735;29;20452;-73
2022/10/27 06:48:40;;;;;;;0.60;0.10;;;12.50;97.60;;;;;;4964614;29;20459;-75
2022/10/27 06:51:08;;;;;;;0.60;0.10;;;12.50;97.40;;;;;;4959883;29;20475;-75
2022/10/27 06:53:35;;;;;;;0.60;0.20;;;12.50;99.90;;;;;;4957356;28;20506;-77
2022/10/27 06:56:05;;;;;;;2.20;0.93;;;12.60;99.90;;;;;;4955308;29;20857;-74
2022/10/27 06:58:38;;;;;;;0.57;0.10;;;12.60;99.90;;;;;;4967214;28;20436;-76
2022/10/27 07:01:06;;;;;;;0.50;0.10;;;12.60;99.90;;;;;;4971194;28;20463;-75
2022/10/27 07:03:34;;;;;;;0.53;0.10;;;12.80;99.90;;;;;;4956011;28;20634;-77
2022/10/27 07:06:02;;;;;;;0.60;0.10;;;12.80;99.90;;;;;;4956096;29;20479;-75
2022/10/27 07:08:29;;;;;;;0.60;0.10;;;12.80;99.90;;;;;;4955920;29;20506;-75
2022/10/27 07:10:57;;;;;;;0.53;0.10;;;;;;;;;;4956015;29;20458;-76
2022/10/27 07:13:27;;;;;;;0.60;0.10;;;12.90;99.90;;;;;;4956043;29;20495;-77
2022/10/27 07:15:54;;;;;;;0.53;0.10;;;12.90;99.90;;;;;;4956238;28;20487;-77
2022/10/27 07:18:22;;;;;;;0.60;0.10;;;12.90;99.90;;;;;;4947381;29;20459;-76
2022/10/27 07:20:52;;;;;;;0.60;0.10;;;12.90;99.90;;;;;;4936952;29;20994;-76
2022/10/27 07:23:20;;;;;;;0.60;0.10;;;12.90;99.90;;;;;;4962111;28;21038;-77
2022/10/27 07:25:48;;;;;;;0.60;0.10;;;13.00;99.90;;;;;;4975193;28;20822;-76
2022/10/27 07:28:17;;;;;;;0.60;0.10;;;13.10;99.90;;;;;;4974452;28;20449;-76
2022/10/27 07:30:47;;;;;;;0.60;0.10;;;13.10;99.90;;;;;;4962133;28;20463;-78
2022/10/27 07:33:15;;;;;;;0.60;0.10;;;13.20;99.90;;;;;;4955357;29;20479;-76
2022/10/27 07:35:47;;;;;;;0.60;0.10;;;13.20;99.90;;;;;;4954866;28;20475;-78
2022/10/27 07:38:15;;;;;;;0.60;0.20;;;13.30;99.90;;;;;;4956273;29;20723;-77
2022/10/27 07:40:43;;;;;;;0.60;0.10;;;13.30;99.90;;;;;;4956966;29;20505;-76
2022/10/27 07:43:11;;;;;;;0.60;0.10;;;13.30;99.90;;;;;;4955067;29;20486;-78
2022/10/27 07:45:41;;;;;;;0.60;0.20;;;13.30;99.90;;;;;;4959735;28;20502;-79
2022/10/27 07:48:13;;;;;;;0.50;0.10;;;13.30;99.90;;;;;;4959087;29;20446;-76
2022/10/27 07:50:41;;;;;;;0.60;0.10;;;13.30;99.90;;;;;;4958643;29;20566;-77
2022/10/27 07:53:10;;;;;;;0.57;0.13;;;13.30;99.90;;;;;;4958870;29;20455;-76
2022/10/27 07:55:38;;;;;;;0.60;0.10;;;13.30;99.90;;;;;;4958734;28;20474;-77
2022/10/27 07:58:07;;;;;;;0.60;0.10;;;13.30;99.90;;;;;;4960660;29;20517;-78
2022/10/27 08:00:37;;;;;;;0.60;0.10;;;13.30;99.90;;;;;;4963075;29;20831;-76
2022/10/27 08:03:07;;;;;;;0.60;0.10;;;13.30;99.90;;;;;;4962015;29;20479;-77
2022/10/27 08:05:37;;;;;;;0.60;0.10;;;13.30;99.90;;;;;;4963810;28;20470;-76
2022/10/27 08:08:07;;;;;;;0.60;0.10;;;13.30;99.90;;;;;;4965519;29;20449;-77
2022/10/27 08:10:36;;;;;;;0.60;0.10;;;13.30;99.90;;;;;;4964595;29;20506;-77
2022/10/27 08:13:05;;;;;;;0.60;0.20;;;13.30;99.90;;;;;;4956004;29;20960;-77
2022/10/27 08:15:33;;;;;;;0.60;0.10;;;13.30;99.90;;;;;;4950995;29;20782;-77
2022/10/27 08:18:02;;;;;;;0.53;0.10;;;13.30;99.90;;;;;;4951395;29;20474;-77
2022/10/27 08:20:33;;;;;;;0.60;0.10;;;13.30;99.90;;;;;;4949970;29;20478;-77
2022/10/27 08:23:04;;;;;;;0.60;0.20;;;13.40;99.90;;;;;;4946583;29;20499;-78
2022/10/27 08:25:33;;;;;;;0.60;0.23;;;13.30;99.90;;;;;;4940281;29;20994;-77
2022/10/27 08:28:01;;;;;;;0.60;0.10;;;14.60;99.90;;;;;;4952031;29;20458;-75
2022/10/27 08:30:31;;;;;;;0.60;0.10;;;13.50;99.90;;;;;;4961438;29;20877;-77
2022/10/27 08:33:03;;;;;;;0.60;0.10;;;13.60;99.90;;;;;;4959177;29;20485;-76
2022/10/27 08:35:32;;;;;;;0.60;0.20;;;13.70;99.90;;;;;;4961394;28;21173;-77
2022/10/27 08:38:03;;;;;;;0.60;0.10;;;13.80;99.90;;;;;;4959557;29;20462;-76
2022/10/27 08:40:40;;;;;;;0.60;0.10;;;13.80;99.90;;;;;;4959876;29;20860;-76
2022/10/27 08:43:30;;;;;;;0.50;0.10;;;13.80;99.90;;;;;;4960778;29;20482;-78
2022/10/27 08:46:02;;;;;;;0.60;0.10;;;13.90;99.90;;;;;;4963151;29;20458;-76
2022/10/27 08:48:32;;;;;;;0.60;0.13;;;14.10;99.90;;;;;;4965468;29;20992;-76
2022/10/27 08:51:01;;;;;;;0.60;0.10;;;14.10;99.90;;;;;;4967069;29;20427;-78
2022/10/27 08:53:38;;;;;;;0.60;0.10;;;14.20;99.90;;;;;;4956245;29;20471;-78
2022/10/27 08:56:08;;;;;;;0.60;0.10;;;14.20;99.90;;;;;;4953738;28;20583;-77
2022/10/27 08:58:39;;;;;;;0.60;0.10;;;14.30;99.90;;;;;;4962510;29;20843;-78
2022/10/27 09:01:31;;;;;;;0.60;0.10;;;14.30;99.90;;;;;;4965731;29;20479;-80
2022/10/27 09:04:23;;;;;;;0.60;0.10;;;14.40;99.90;;;;;;4965988;28;20541;-78
2022/10/27 09:07:04;;;;;;;0.60;0.10;;;14.40;99.90;;;;;;4967736;29;20463;-79
2022/10/27 09:09:44;;;;;;;0.60;0.50;;;14.50;99.90;;;;;;4966726;29;20483;-79
2022/10/27 09:12:20;;;;;;;0.60;0.10;;;14.60;99.90;;;;;;4956627;29;21007;-79
2022/10/27 09:15:12;;;;;;;0.60;0.10;;;14.80;99.90;;;;;;4953542;29;21033;-80
2022/10/27 09:17:45;;;;;;;0.60;0.10;;;14.80;99.90;;;;;;4940822;29;20502;-79
2022/10/27 09:20:19;;;;;;;0.60;0.10;;;14.90;99.90;;;;;;4951249;29;20448;-79
2022/10/27 09:22:50;;;;;;;0.60;0.10;;;15.00;99.90;;;;;;4948839;29;20499;-80
2022/10/27 09:25:20;;;;;;;0.60;0.10;;;15.00;99.90;;;;;;4959910;29;20475;-78
2022/10/27 09:27:52;;;;;;;0.60;0.10;;;15.10;99.90;;;;;;4960693;29;20476;-80
2022/10/27 09:30:21;;;;;;;0.60;0.10;;;15.30;99.90;;;;;;4959166;29;20448;-80
2022/10/27 09:32:52;;;;;;;0.60;0.10;;;15.30;99.90;;;;;;4942961;29;20467;-82
2022/10/27 09:35:24;;;;;;;0.60;0.10;;;15.40;96.50;;;;;;4943101;29;20476;-79
2022/10/27 09:37:52;;;;;;;0.60;0.10;;;15.40;98.80;;;;;;4951058;29;20962;-80
2022/10/27 09:40:24;;;;;;;0.60;0.10;;;15.60;96.60;;;;;;4952034;29;20486;-79
2022/10/27 09:42:55;;;;;;;0.60;0.10;;;15.60;99.00;;;;;;4947163;29;20479;-79
2022/10/27 09:45:25;;;;;;;0.60;0.10;;;15.70;96.70;;;;;;4941410;29;20460;-78
2022/10/27 09:47:56;;;;;;;0.60;0.10;;;15.80;98.90;;;;;;4948995;29;20446;-79
2022/10/27 09:50:26;;;;;;;0.60;0.10;;;15.90;98.90;;;;;;4952917;29;20445;-80
2022/10/27 09:52:55;;;;;;;0.60;0.10;;;15.90;96.70;;;;;;4964064;29;20521;-80
2022/10/27 09:55:48;;;;;;;0.60;0.10;;;16.00;78.90;;;;;;4959681;29;21063;-77
2022/10/27 09:58:16;;;;;;;0.60;0.10;;;16.10;75.00;;;;;;4962052;29;20508;-79
2022/10/27 10:00:44;;;;;;;0.60;0.10;;;16.10;60.30;;;;;;4951912;29;20492;-80
2022/10/27 10:03:19;;;;;;;0.60;0.10;;;16.20;57.20;;;;;;4946869;29;20459;-78
2022/10/27 10:05:58;;;;;;;0.60;0.10;;;16.30;48.30;;;;;;4950906;29;20541;-78
2022/10/27 10:08:28;;;;;;;0.60;0.23;;;16.40;49.50;;;;;;4942832;29;20479;-79
2022/10/27 10:11:00;;;;;;;0.80;0.67;;;16.50;33.10;;;;;;4950865;29;20935;-79
2022/10/27 10:13:29;;;;;;;0.60;0.10;;;17.00;28.50;;;;;;4958569;29;20451;-80
2022/10/27 10:16:09;;;;;;;0.60;0.10;;;16.50;26.40;;;;;;4954908;29;20503;-77
2022/10/27 10:18:39;;;;;;;0.60;0.10;;;16.50;22.40;;;;;;4953801;29;20474;-76
2022/10/27 10:21:09;;;;;;;1.03;0.93;;;16.60;23.10;;;;;;4956379;29;20511;-76
2022/10/27 10:23:42;;;;;;;0.60;0.10;;;16.80;16.40;;;;;;4955584;29;20487;-79
2022/10/27 10:26:19;;;;;;;0.60;0.10;;;16.80;20.00;;;;;;4956105;29;20479;-78
2022/10/27 10:28:51;;;;;;;0.60;0.10;;;16.90;15.60;;;;;;4956467;29;20457;-79
2022/10/27 10:31:23;;;;;;;0.60;0.10;;;17.00;12.90;;;;;;4956811;29;20435;-77
2022/10/27 10:33:53;;;;;;;0.60;0.10;;;17.20;1.00;;;;;;4956334;28;20513;-77
2022/10/27 10:36:27;;;;;;;0.60;0.17;;;17.20;3.60;;;;;;4955623;29;20506;-76
2022/10/27 10:38:59;;;;;;;0.60;0.10;;;17.40;1.00;;;;;;4957768;29;20463;-77
2022/10/27 10:41:29;;;;;;;0.60;0.10;;;17.40;1.00;;;;;;4949241;29;20466;-76
2022/10/27 10:44:08;;;;;;;0.60;0.10;;;17.60;1.00;;;;;;4956154;29;20549;-77
2022/10/27 10:46:39;;;;;;;0.60;0.10;;;17.60;1.00;;;;;;4936401;29;20483;-78
2022/10/27 10:49:20;;;;;;;0.60;0.10;;;17.70;1.00;;;;;;4942252;29;20834;-76
2022/10/27 10:51:52;;;;;;;0.60;0.10;;;17.80;1.00;;;;;;4956090;29;20527;-77
2022/10/27 10:54:26;;;;;;;0.60;0.10;;;17.90;1.00;;;;;;4956290;28;21048;-76
2022/10/27 10:56:55;;;;;;;0.60;0.10;;;17.90;1.00;;;;;;4955632;29;20541;-78
2022/10/27 10:59:27;;;;;;;0.60;0.20;;;18.00;1.00;;;;;;4955888;29;20467;-78
2022/10/27 11:02:01;;;;;;;0.60;0.10;;;18.10;1.00;;;;;;4959067;29;20969;-80
2022/10/27 11:04:33;;;;;;;0.60;0.10;;;18.20;1.00;;;;;;4960528;28;20834;-80
2022/10/27 11:07:04;;;;;;;0.60;0.10;;;18.30;1.00;;;;;;4956660;29;20935;-80
2022/10/27 11:09:38;;;;;;;0.60;0.10;;;18.30;1.00;;;;;;4962014;29;20505;-80
2022/10/27 11:12:26;;;;;;;0.60;0.10;;;18.40;1.00;;;;;;4944331;29;20452;-78
2022/10/27 11:14:55;;;;;;;0.60;0.10;;;18.60;1.00;;;;;;4947274;29;20470;-81
2022/10/27 11:17:25;;;;;;;0.60;0.10;;;18.60;1.00;;;;;;4952837;29;20455;-78
2022/10/27 11:19:54;;;;;;;0.60;0.10;;;18.60;1.00;;;;;;4958693;28;20455;-80
2022/10/27 11:22:26;;;;;;;0.60;0.20;;;18.70;1.00;;;;;;4959440;29;20610;-79
2022/10/27 11:24:57;;;;;;;0.60;0.10;;;18.80;1.00;;;;;;4959219;28;20494;-79
2022/10/27 11:27:31;;;;;;;0.60;0.20;;;18.90;1.00;;;;;;4949318;29;20447;-80
2022/10/27 11:30:11;;;;;;;0.60;0.20;;;19.00;1.00;;;;;;4956951;29;20455;-78
2022/10/27 11:32:44;;;;;;;0.60;0.20;;;19.00;1.00;;;;;;4957506;29;20447;-79
2022/10/27 11:35:20;;;;;;;0.60;0.10;;;19.10;1.00;;;;;;4961978;28;20467;-78
2022/10/27 11:37:57;;;;;;;0.60;0.10;;;19.10;1.00;;;;;;4963113;29;20463;-79
2022/10/27 11:40:33;;;;;;;0.60;0.20;;;19.10;1.00;;;;;;4953523;29;20773;-78
2022/10/27 11:43:07;;;;;;;0.60;0.20;;;19.10;1.00;;;;;;4958455;29;20459;-78
2022/10/27 11:45:43;;;;;;;0.60;0.20;;;19.20;1.00;;;;;;4959588;29;20536;-78
2022/10/27 11:48:20;;;;;;;0.60;0.10;;;19.20;1.00;;;;;;4967764;29;20454;-79
2022/10/27 11:50:52;;;;;;;0.90;0.10;;;19.20;1.00;;;;;;4964643;29;20795;-78
2022/10/27 11:53:21;;;;;;;0.60;0.10;;;19.30;1.00;;;;;;4955916;29;20452;-78
2022/10/27 11:56:10;;;;;;;0.60;0.10;;;19.50;1.00;;;;;;4952025;28;20468;-78
2022/10/27 11:58:48;;;;;;;0.60;0.10;;;19.50;1.00;;;;;;4953266;29;20408;-78
2022/10/27 12:01:33;;;;;;;0.60;0.20;;;19.60;1.00;;;;;;4951361;29;20483;-78
2022/10/27 12:04:13;;;;;;;1.00;0.77;;;19.70;1.00;;;;;;4957010;28;21183;-78
2022/10/27 12:06:48;;;;;;;0.60;0.10;;;19.70;1.00;;;;;;4943338;29;20463;-79
2022/10/27 12:09:26;;;;;;;1.37;1.20;;;19.70;1.00;;;;;;4943337;29;20962;-79
2022/10/27 12:12:05;;;;;;;0.60;0.10;;;19.80;1.00;;;;;;4956351;29;20466;-77
2022/10/27 12:14:44;;;;;;;0.60;0.13;;;19.90;1.00;;;;;;4951411;29;20475;-78
2022/10/27 12:17:24;;;;;;;0.60;0.10;;;19.90;1.00;;;;;;4958590;29;20470;-78
2022/10/27 12:19:55;;;;;;;0.60;0.10;;;20.00;1.00;;;;;;4959588;29;20525;-80
2022/10/27 12:22:27;;;;;;;0.60;0.10;;;20.10;1.00;;;;;;4958377;29;20455;-78
2022/10/27 12:25:00;;;;;;;0.60;0.10;;;20.20;1.00;;;;;;4958269;28;20558;-79
2022/10/27 12:27:31;;;;;;;0.60;0.10;;;20.20;1.00;;;;;;4954731;29;20468;-80
2022/10/27 12:30:07;;;;;;;6.00;1.60;;;20.30;1.00;;;;;;4956369;29;20440;-79
2022/10/27 12:32:41;;;;;;;0.60;0.10;;;20.20;1.00;;;;;;4957045;29;20961;-76
2022/10/27 12:35:17;;;;;;;0.60;0.10;;;20.30;1.00;;;;;;4954591;29;20500;-78
2022/10/27 12:37:53;;;;;;;0.60;0.10;;;20.40;1.00;;;;;;4963669;29;20864;-79
2022/10/27 12:40:28;;;;;;;0.60;0.20;;;20.50;1.00;;;;;;4960448;29;20543;-79
2022/10/27 12:43:06;;;;;;;0.60;0.10;;;20.50;1.00;;;;;;4963159;29;20538;-79
2022/10/27 12:45:49;;;;;;;0.60;0.10;;;20.60;1.00;;;;;;4963663;28;20487;-79
2022/10/27 12:48:26;;;;;;;0.60;0.10;;;20.70;1.00;;;;;;4963115;29;20451;-79
2022/10/27 12:51:04;;;;;;;1.03;0.93;;;20.70;1.00;;;;;;4963637;29;20446;-78
2022/10/27 12:53:43;;;;;;;0.60;0.10;;;20.70;1.00;;;;;;4958149;29;20451;-78
2022/10/27 12:56:26;;;;;;;0.70;0.30;;;20.70;1.00;;;;;;4963678;29;20449;-79
2022/10/27 12:59:02;;;;;;;0.90;0.57;;;20.70;1.00;;;;;;4968051;29;20439;-79
2022/10/27 13:01:39;;;;;;;0.60;0.10;;;20.70;1.00;;;;;;4970271;29;20442;-78
2022/10/27 13:04:28;;;;;;;0.60;0.10;;;20.80;1.00;;;;;;4958288;29;20476;-79
2022/10/27 13:07:16;;;;;;;0.60;0.10;;;20.70;1.00;;;;;;4964762;29;20541;-79
2022/10/27 13:10:08;;;;;;;0.60;0.20;;;20.80;1.00;;;;;;4962738;29;20923;-79
2022/10/27 13:12:54;;;;;;;0.60;0.30;;;20.90;1.00;;;;;;4952666;29;20861;-79
2022/10/27 13:15:38;;;;;;;0.60;0.10;;;20.90;1.00;;;;;;4962180;28;20467;-79
2022/10/27 13:18:20;;;;;;;0.60;0.10;;;20.90;1.00;;;;;;4967181;29;20442;-79
2022/10/27 13:20:56;;;;;;;1.00;0.47;;;21.00;1.00;;;;;;4968823;29;20462;-78
2022/10/27 13:23:31;;;;;;;0.60;0.10;;;20.90;1.00;;;;;;4965306;29;20451;-78
2022/10/27 13:26:11;;;;;;;0.60;0.10;;;21.00;1.00;;;;;;4962196;29;20475;-74
2022/10/27 13:28:44;;;;;;;0.60;0.10;;;21.10;1.00;;;;;;4956785;29;20451;-73
2022/10/27 13:31:16;;;;;;;0.60;0.20;;;21.10;1.00;;;;;;4957211;29;20451;-74
2022/10/27 13:34:02;;;;;;;0.60;0.10;;;21.20;1.00;;;;;;4956758;28;20489;-74
2022/10/27 13:36:30;;;;;;;0.60;0.10;;;21.20;1.00;;;;;;4957599;29;20439;-74
2022/10/27 13:39:35;;;;;;;0.60;0.10;;;21.20;1.00;;;;;;4952352;29;20957;-73
2022/10/27 13:42:15;;;;;;;0.60;0.10;;;21.20;1.00;;;;;;4954876;28;21024;-74
2022/10/27 13:44:42;;;;;;;0.60;0.10;;;21.30;1.00;;;;;;4957174;28;20481;-73
2022/10/27 13:47:12;;;;;;;0.60;0.10;;;21.30;1.00;;;;;;4958033;29;20490;-74
2022/10/27 13:50:24;;;;;;;0.60;0.10;;;21.30;1.00;;;;;;4958576;29;20831;-75
2022/10/27 13:53:35;;;;;;;0.60;0.10;;;21.30;1.00;;;;;;4947845;29;20448;-76
2022/10/27 13:56:36;;;;;;;0.60;0.10;;;21.30;1.00;;;;;;4957473;29;20447;-75
2022/10/27 13:59:12;;;;;;;0.60;0.20;;;21.30;1.00;;;;;;4956865;29;20451;-74
2022/10/27 14:01:45;;;;;;;0.60;0.10;;;21.30;1.00;;;;;;4956039;29;20451;-75
2022/10/27 14:04:24;;;;;;;0.60;0.10;;;21.30;1.00;;;;;;4950167;28;20475;-76
2022/10/27 14:07:00;;;;;;;1.47;1.37;;;21.30;1.00;;;;;;4956063;29;20954;-76
2022/10/27 14:09:35;;;;;;;0.60;0.10;;;21.30;1.00;;;;;;4959134;29;20451;-75
2022/10/27 14:12:14;;;;;;;0.60;0.10;;;21.30;1.00;;;;;;4944301;29;20476;-74
2022/10/27 14:14:42;;;;;;;1.23;0.83;;;21.30;1.00;;;;;;4960214;28;20502;-75
2022/10/27 14:17:16;;;;;;;0.60;0.10;;;21.30;1.00;;;;;;4949238;29;20448;-73
2022/10/27 14:19:56;;;;;;;0.60;0.10;;;21.20;1.00;;;;;;4945278;29;20444;-74
2022/10/27 14:22:31;;;;;;;0.60;0.10;;;21.20;1.00;;;;;;4943776;29;20826;-72
2022/10/27 14:25:04;;;;;;;0.60;0.20;;;21.20;1.00;;;;;;4960429;28;20529;-76
2022/10/27 14:27:31;;;;;;;0.60;0.10;;;21.20;1.00;;;;;;4959956;29;20480;-78
2022/10/27 14:30:13;;;;;;;0.60;0.10;;;21.20;1.00;;;;;;4942075;29;20452;-76
2022/10/27 14:32:41;;;;;;;0.60;0.10;;;21.20;1.00;;;;;;4940676;29;20867;-76
2022/10/27 14:35:19;;;;;;;0.60;0.10;;;21.20;1.00;;;;;;4963023;28;20490;-74
2022/10/27 14:37:48;;;;;;;0.60;0.10;;;21.20;1.00;;;;;;4962182;29;20447;-73
2022/10/27 14:40:20;;;;;;;0.60;0.10;;;21.20;1.00;;;;;;4959092;29;20459;-75
2022/10/27 14:42:49;;;;;;;0.60;0.10;;;21.20;1.00;;;;;;4952929;29;20491;-73
2022/10/27 14:45:20;;;;;;;0.60;0.10;;;21.20;1.00;;;;;;4942307;29;20468;-73
2022/10/27 14:47:50;;;;;;;0.60;0.10;;;21.20;1.00;;;;;;4936661;29;20538;-76
2022/10/27 14:50:24;;;;;;;0.60;0.10;;;21.20;1.00;;;;;;4938224;29;20919;-74
2022/10/27 14:52:54;;;;;;;0.60;0.10;;;21.20;1.00;;;;;;4947003;29;20510;-75
2022/10/27 14:55:30;;;;;;;0.60;0.10;;;21.10;1.00;;;;;;4955442;28;20474;-74
2022/10/27 14:57:59;;;;;;;0.60;0.20;;;21.10;1.00;;;;;;4954853;29;20447;-73
2022/10/27 15:00:29;;;;;;;0.60;0.10;;;21.10;1.00;;;;;;4954543;29;21024;-75
2022/10/27 15:02:59;;;;;;;0.60;0.10;;;21.10;1.00;;;;;;4954053;29;20474;-75
2022/10/27 15:05:29;;;;;;;0.60;0.10;;;21.10;1.00;;;;;;4954270;28;20471;-73
2022/10/27 15:07:59;;;;;;;0.60;0.10;;;21.10;1.00;;;;;;4954431;29;20910;-75
2022/10/27 15:10:35;;;;;;;0.60;0.10;;;21.10;1.00;;;;;;4954715;29;20435;-75
2022/10/27 15:13:04;;;;;;;0.60;0.10;;;21.10;1.00;;;;;;4951672;29;20448;-75
2022/10/27 15:15:35;;;;;;;0.60;0.10;;;21.00;1.00;;;;;;4943557;29;20472;-75
2022/10/27 15:18:21;;;;;;;0.60;0.20;;;21.00;1.00;;;;;;4945719;29;20486;-74
2022/10/27 15:20:49;;;;;;;0.60;0.20;;;21.00;1.00;;;;;;4944304;29;20452;-74
2022/10/27 15:23:18;;;;;;;0.60;0.20;;;20.90;1.00;;;;;;4936927;29;20495;-75
2022/10/27 15:25:51;;;;;;;0.60;0.10;;;20.90;1.00;;;;;;4934801;29;20467;-74
2022/10/27 15:28:28;;;;;;;0.60;0.10;;;20.90;1.00;;;;;;4939722;29;20452;-75
2022/10/27 15:30:56;;;;;;;0.60;0.10;;;20.80;1.00;;;;;;4939553;29;20440;-75
2022/10/27 15:33:33;;;;;;;0.60;0.20;;;20.80;1.00;;;;;;4950937;29;20442;-75
2022/10/27 15:36:20;;;;;;;0.60;0.17;;;20.70;1.00;;;;;;4936698;29;20842;-75
2022/10/27 15:38:49;;;;;;;0.83;0.83;;;20.70;1.00;;;;;;4948119;29;20526;-75
2022/10/27 15:41:21;;;;;;;0.60;0.10;;;20.70;1.00;;;;;;4954001;29;20502;-76
2022/10/27 15:43:50;;;;;;;0.60;0.10;;;20.60;1.00;;;;;;4938458;29;21022;-76
2022/10/27 15:46:29;;;;;;;0.60;0.20;;;20.60;1.00;;;;;;4937059;29;20950;-74
2022/10/27 15:49:18;;;;;;;0.60;0.10;;;20.50;1.00;;;;;;4944661;29;20459;-74
2022/10/27 15:51:49;;;;;;;0.60;0.10;;;20.40;1.00;;;;;;4942385;29;20954;-74
2022/10/27 15:54:22;;;;;;;0.60;0.10;;;20.30;1.00;;;;;;4947831;29;20522;-74
2022/10/27 15:56:56;;;;;;;0.60;0.13;;;20.30;1.00;;;;;;4954339;29;20479;-74
2022/10/27 15:59:26;;;;;;;0.60;0.10;;;20.20;1.00;;;;;;4954040;29;20451;-74
2022/10/27 16:01:59;;;;;;;0.60;0.10;;;20.20;1.00;;;;;;4955121;29;20575;-73
2022/10/27 16:04:33;;;;;;;0.60;0.10;;;20.00;1.00;;;;;;4954158;28;20471;-77
2022/10/27 16:07:32;;;;;;;0.60;0.10;;;20.00;1.00;;;;;;4956850;28;20485;-75
2022/10/27 16:10:00;;;;;;;0.60;0.10;;;20.00;1.00;;;;;;4957267;29;20580;-75
2022/10/27 16:12:38;;;;;;;0.60;0.10;;;19.90;1.00;;;;;;4938603;29;20483;-75
2022/10/27 16:15:16;;;;;;;0.60;0.20;;;19.80;1.00;;;;;;4939690;29;20542;-76
2022/10/27 16:17:47;;;;;;;0.60;0.10;;;19.80;1.00;;;;;;4940925;29;20479;-76
2022/10/27 16:20:17;;;;;;;0.60;0.10;;;19.70;1.00;;;;;;4950801;29;20456;-75
2022/10/27 16:22:45;;;;;;;0.60;0.20;;;19.60;1.00;;;;;;4949758;29;20497;-75
2022/10/27 16:25:14;;;;;;;0.60;0.10;;;19.60;1.00;;;;;;4951597;28;20896;-76
2022/10/27 16:27:43;;;;;;;0.60;0.10;;;19.50;1.00;;;;;;4951661;28;20479;-77
2022/10/27 16:30:16;;;;;;;0.60;0.10;;;19.50;1.00;;;;;;4951783;28;20451;-75
2022/10/27 16:32:45;;;;;;;0.60;0.10;;;19.40;1.00;;;;;;4960088;28;20442;-75
2022/10/27 16:35:14;;;;;;;0.60;0.10;;;19.30;1.00;;;;;;4949916;29;20463;-75
2022/10/27 16:37:42;;;;;;;0.60;0.20;;;19.30;1.00;;;;;;4950067;29;20451;-76
2022/10/27 16:40:13;;;;;;;0.60;0.10;;;19.20;1.00;;;;;;4948656;29;20474;-75
2022/10/27 16:42:44;;;;;;;0.60;0.13;;;19.20;1.00;;;;;;4950031;29;20463;-76
2022/10/27 16:45:13;;;;;;;0.60;0.13;;;19.20;1.00;;;;;;4947253;29;20994;-75
2022/10/27 16:47:41;;;;;;;0.60;0.10;;;19.20;1.00;;;;;;4951584;28;20479;-74
2022/10/27 16:50:10;;;;;;;0.60;0.20;;;19.10;1.00;;;;;;4950195;28;20451;-76
2022/10/27 16:52:38;;;;;;;0.60;0.10;;;19.00;1.00;;;;;;4958340;29;20490;-75
2022/10/27 16:55:08;;;;;;;0.60;0.20;;;19.00;1.00;;;;;;4959036;29;20467;-78
2022/10/27 16:57:37;;;;;;;0.60;0.10;;;19.00;1.00;;;;;;4960764;29;20554;-76
2022/10/27 17:00:09;;;;;;;0.60;0.10;;;18.90;1.00;;;;;;4959812;29;20458;-76
2022/10/27 17:02:37;;;;;;;0.60;0.10;;;18.90;1.00;;;;;;4955489;29;20534;-76
2022/10/27 17:05:06;;;;;;;0.60;0.10;;;18.90;1.00;;;;;;4960447;28;20518;-76
2022/10/27 17:07:35;;;;;;;0.60;0.10;;;18.90;1.00;;;;;;4963582;28;20544;-77
2022/10/27 17:10:03;;;;;;;0.60;0.20;;;18.80;1.00;;;;;;4975052;28;20450;-76
2022/10/27 17:12:31;;;;;;;0.60;0.10;;;18.80;1.00;;;;;;4963499;29;20475;-76
2022/10/27 17:14:59;;;;;;;0.60;0.30;;;18.80;1.00;;;;;;4964593;28;20525;-78
2022/10/27 17:17:28;;;;;;;0.60;0.10;;;18.80;1.00;;;;;;4971887;28;20447;-75
2022/10/27 17:19:56;;;;;;;0.60;0.10;;;18.80;1.00;;;;;;4971724;29;20455;-75
2022/10/27 17:22:24;;;;;;;0.60;0.20;;;18.80;1.00;;;;;;4964098;29;20555;-76